Time;durP1;ratioP1;P1;durP2;ratioP2;P2;SDS_P1;SDS_P2;PMS_P1;PMS_P2;Temp;Humidity;BMP_temperature;BMP_pressure;BME280_temperature;BME280_humidity;BME280_pressure;Samples;Min_cycle;Max_cycle;Signal;HPM_P1;HPM_P2
2021/07/21 00:01:53;;;;;;;3.17;2.65;;;;;;;;;;5055663;28;20032;-55
2021/07/21 00:04:18;;;;;;;3.55;2.47;;;;;;;;;;5055489;28;20480;-55
2021/07/21 00:06:43;;;;;;;7.22;2.58;;;;;;;;;;5055342;28;20041;-55
2021/07/21 00:09:09;;;;;;;5.03;2.90;;;;;;;;;;5054032;28;20483;-54
2021/07/21 00:14:21;;;;;;;5.22;2.60;;;;;;;;;;5055036;28;20090;-55
2021/07/21 00:16:55;;;;;;;9.75;3.00;;;;;;;;;;5054926;28;20017;-55
2021/07/21 00:22:04;;;;;;;8.02;2.60;;;;;;;;;;5055254;28;20037;-55
2021/07/21 00:24:29;;;;;;;6.88;3.42;;;;;;;;;;5054982;28;20384;-55
2021/07/21 00:26:55;;;;;;;4.45;2.53;;;;;;;;;;5054873;28;20041;-55
2021/07/21 00:29:20;;;;;;;7.25;3.13;;;;;;;;;;5054748;28;20028;-54
2021/07/21 00:31:46;;;;;;;5.20;3.08;;;;;;;;;;5054878;28;20029;-55
2021/07/21 00:34:11;;;;;;;4.85;3.35;;;;;;;;;;5054807;28;20063;-55
2021/07/21 00:36:36;;;;;;;5.55;3.00;;;;;;;;;;5053297;28;20033;-55
2021/07/21 00:39:03;;;;;;;8.50;3.20;;;;;;;;;;5054588;28;20013;-54
2021/07/21 00:41:30;;;;;;;6.03;2.17;;;;;;;;;;5054780;28;20041;-54
2021/07/21 00:43:56;;;;;;;3.97;2.70;;;;;;;;;;5053252;28;20075;-55
2021/07/21 00:46:21;;;;;;;8.43;3.40;;;;;;;;;;5069709;28;20033;-56
2021/07/21 00:48:47;;;;;;;4.40;2.67;;;;;;;;;;5054356;28;20530;-55
2021/07/21 00:51:13;;;;;;;5.53;2.88;;;;;;;;;;5054302;28;20054;-54
2021/07/21 00:53:40;;;;;;;10.52;4.03;;;;;;;;;;5054533;28;20503;-55
2021/07/21 00:56:10;;;;;;;5.10;3.55;;;;;;;;;;5052926;28;20054;-55
2021/07/21 00:58:36;;;;;;;8.50;3.30;;;;;;;;;;5053960;28;20020;-55
2021/07/21 01:01:01;;;;;;;5.40;3.08;;;;;;;;;;5054408;28;20025;-55
2021/07/21 01:03:27;;;;;;;4.13;3.08;;;;;;;;;;5054303;28;20024;-54
2021/07/21 01:05:57;;;;;;;9.93;3.97;;;;;;;;;;5054045;28;20013;-55
2021/07/21 01:08:24;;;;;;;6.28;2.78;;;;;;;;;;5069549;28;20037;-55
2021/07/21 01:11:24;;;;;;;6.38;3.05;;;;;;;;;;5043333;28;20626;-55
2021/07/21 01:14:12;;;;;;;6.82;3.58;;;;;;;;;;5069288;28;20368;-56
2021/07/21 01:16:43;;;;;;;5.63;3.50;;;;;;;;;;5069230;28;20041;-54
2021/07/21 01:19:10;;;;;;;4.72;3.20;;;;;;;;;;5052658;28;20021;-55
2021/07/21 01:21:55;;;;;;;8.55;3.00;;;;;;;;;;5052493;28;20403;-55
2021/07/21 01:24:26;;;;;;;9.38;3.03;;;;;;;;;;5053989;28;20132;-53
2021/07/21 01:26:56;;;;;;;6.88;3.33;;;;;;;;;;5053918;28;20559;-54
2021/07/21 01:29:24;;;;;;;6.93;3.70;;;;;;;;;;5052394;28;20472;-54
2021/07/21 01:31:52;;;;;;;4.82;2.78;;;;;;;;;;5068966;28;20047;-55
2021/07/21 01:34:19;;;;;;;5.70;2.83;;;;;;;;;;5068949;28;20059;-55
2021/07/21 01:36:49;;;;;;;4.20;2.80;;;;;;;;;;5068746;28;20079;-54
2021/07/21 01:39:16;;;;;;;4.53;3.15;;;;;;;;;;5053581;28;20033;-54
2021/07/21 01:41:47;;;;;;;4.75;2.97;;;;;;;;;;5052030;28;20502;-54
2021/07/21 01:44:15;;;;;;;7.35;2.65;;;;;;;;;;5053633;28;20025;-54
2021/07/21 01:46:44;;;;;;;5.95;3.13;;;;;;;;;;5051900;28;20029;-54
2021/07/21 01:49:10;;;;;;;6.30;3.55;;;;;;;;;;5053642;28;20021;-55
2021/07/21 01:51:41;;;;;;;10.38;3.35;;;;;;;;;;5051715;28;20056;-55
2021/07/21 01:54:09;;;;;;;10.25;3.40;;;;;;;;;;5053146;28;20442;-54
2021/07/21 01:56:39;;;;;;;9.30;3.97;;;;;;;;;;5051826;28;20020;-54
2021/07/21 01:59:07;;;;;;;10.93;3.45;;;;;;;;;;5053346;28;20057;-54
2021/07/21 02:02:03;;;;;;;8.07;3.40;;;;;;;;;;5040017;28;20375;-55
2021/07/21 02:04:39;;;;;;;5.85;3.65;;;;;;;;;;5051615;28;20083;-55
2021/07/21 02:07:08;;;;;;;8.50;3.60;;;;;;;;;;5053202;28;20033;-55
2021/07/21 02:09:34;;;;;;;5.45;3.33;;;;;;;;;;5050969;28;20009;-56
2021/07/21 02:12:03;;;;;;;8.95;3.88;;;;;;;;;;5051628;28;20025;-54
2021/07/21 02:14:30;;;;;;;5.22;2.90;;;;;;;;;;5051501;28;20032;-55
2021/07/21 02:17:08;;;;;;;6.07;2.92;;;;;;;;;;5068191;28;20032;-55
2021/07/21 02:19:38;;;;;;;5.43;3.38;;;;;;;;;;5068065;28;20605;-55
2021/07/21 02:22:18;;;;;;;5.15;3.03;;;;;;;;;;5068083;28;20028;-55
2021/07/21 02:24:52;;;;;;;6.72;3.53;;;;;;;;;;5051365;28;20071;-56
2021/07/21 02:27:27;;;;;;;6.00;3.10;;;;;;;;;;5067881;28;20099;-55
2021/07/21 02:29:53;;;;;;;6.22;3.22;;;;;;;;;;5051254;28;20399;-55
2021/07/21 02:32:31;;;;;;;6.78;3.45;;;;;;;;;;5052577;28;20027;-55
2021/07/21 02:34:58;;;;;;;6.80;3.38;;;;;;;;;;5051253;28;20554;-54
2021/07/21 02:37:26;;;;;;;5.78;3.22;;;;;;;;;;5051234;28;20502;-54
2021/07/21 02:39:52;;;;;;;6.10;3.45;;;;;;;;;;5052566;28;20029;-54
2021/07/21 02:42:18;;;;;;;7.85;3.63;;;;;;;;;;5052439;28;20031;-54
2021/07/21 02:44:46;;;;;;;9.10;3.35;;;;;;;;;;5052197;28;20021;-54
2021/07/21 02:47:12;;;;;;;6.78;3.40;;;;;;;;;;5052221;28;20029;-55
2021/07/21 02:49:39;;;;;;;4.95;3.10;;;;;;;;;;5050986;28;20025;-55
2021/07/21 02:52:13;;;;;;;6.13;3.35;;;;;;;;;;5050975;28;20045;-54
2021/07/21 02:54:54;;;;;;;4.88;2.67;;;;;;;;;;5067531;28;20036;-55
2021/07/21 02:57:28;;;;;;;8.30;3.33;;;;;;;;;;5067760;28;20502;-55
2021/07/21 02:59:56;;;;;;;7.97;3.72;;;;;;;;;;5052221;28;20052;-55
2021/07/21 03:02:24;;;;;;;6.95;4.05;;;;;;;;;;5052171;28;20063;-54
2021/07/21 03:04:51;;;;;;;7.82;3.33;;;;;;;;;;5067537;28;20025;-55
2021/07/21 03:07:38;;;;;;;6.53;3.03;;;;;;;;;;5052481;28;20028;-54
2021/07/21 03:10:06;;;;;;;6.68;4.05;;;;;;;;;;5050794;28;20391;-55
2021/07/21 03:12:38;;;;;;;8.55;4.03;;;;;;;;;;5067585;28;20090;-55
2021/07/21 03:15:28;;;;;;;6.75;3.55;;;;;;;;;;5052303;28;20057;-54
2021/07/21 03:17:56;;;;;;;6.88;4.15;;;;;;;;;;5050811;28;20033;-55
2021/07/21 03:20:22;;;;;;;5.53;3.05;;;;;;;;;;5050775;28;20112;-55
2021/07/21 03:23:01;;;;;;;7.10;3.63;;;;;;;;;;5071509;28;20029;-55
2021/07/21 03:25:28;;;;;;;7.60;3.90;;;;;;;;;;5071303;28;20502;-54
2021/07/21 03:27:54;;;;;;;7.10;3.78;;;;;;;;;;5054704;28;20110;-55
2021/07/21 03:30:37;;;;;;;8.07;4.60;;;;;;;;;;5055856;28;20067;-55
2021/07/21 03:33:10;;;;;;;6.60;3.88;;;;;;;;;;5056308;28;20031;-55
2021/07/21 03:35:42;;;;;;;6.77;4.17;;;;;;;;;;5054463;28;20029;-54
2021/07/21 03:38:07;;;;;;;5.68;3.50;;;;;;;;;;5056071;28;20036;-56
2021/07/21 03:40:38;;;;;;;7.20;3.75;;;;;;;;;;5054378;28;20013;-55
2021/07/21 03:43:17;;;;;;;8.63;3.65;;;;;;;;;;5071197;28;20487;-55
2021/07/21 03:45:56;;;;;;;6.35;3.47;;;;;;;;;;5054147;28;20131;-55
2021/07/21 03:48:23;;;;;;;9.93;4.38;;;;;;;;;;5055740;28;20021;-55
2021/07/21 03:51:07;;;;;;;7.22;3.90;;;;;;;;;;5055606;28;20076;-55
2021/07/21 03:53:52;;;;;;;7.72;4.35;;;;;;;;;;5055239;28;20403;-55
2021/07/21 03:56:18;;;;;;;7.25;3.50;;;;;;;;;;5054208;28;20033;-56
2021/07/21 03:58:49;;;;;;;7.47;4.27;;;;;;;;;;5054029;28;20020;-55
2021/07/21 04:01:22;;;;;;;8.10;4.03;;;;;;;;;;5070707;28;20786;-55
2021/07/21 04:03:54;;;;;;;6.05;3.80;;;;;;;;;;5055521;28;20032;-55
2021/07/21 04:06:21;;;;;;;7.20;3.92;;;;;;;;;;5070723;28;20041;-55
2021/07/21 04:09:00;;;;;;;7.18;3.60;;;;;;;;;;5054074;28;20360;-55
2021/07/21 04:11:28;;;;;;;5.25;3.53;;;;;;;;;;5055507;28;20056;-55
2021/07/21 04:13:58;;;;;;;8.13;4.20;;;;;;;;;;5055299;28;20021;-55
2021/07/21 04:16:36;;;;;;;11.52;3.83;;;;;;;;;;5070471;28;20028;-55
2021/07/21 04:19:04;;;;;;;9.27;3.83;;;;;;;;;;5055034;28;20025;-55
2021/07/21 04:21:30;;;;;;;5.95;3.40;;;;;;;;;;5055016;28;20024;-55
2021/07/21 04:23:57;;;;;;;9.93;3.60;;;;;;;;;;5054890;28;20472;-55
2021/07/21 04:26:25;;;;;;;11.35;4.25;;;;;;;;;;5053463;28;20048;-54
2021/07/21 04:28:52;;;;;;;11.50;4.32;;;;;;;;;;5053562;28;20072;-54
2021/07/21 04:31:26;;;;;;;8.23;4.00;;;;;;;;;;5054902;28;20047;-55
2021/07/21 04:33:53;;;;;;;8.93;4.53;;;;;;;;;;5069291;28;20044;-54
2021/07/21 04:36:20;;;;;;;5.63;3.72;;;;;;;;;;5053568;28;20384;-54
2021/07/21 04:38:51;;;;;;;8.85;4.53;;;;;;;;;;5070085;28;20033;-55
2021/07/21 04:41:41;;;;;;;5.63;3.13;;;;;;;;;;5043986;28;20032;-55
2021/07/21 04:44:12;;;;;;;9.02;4.00;;;;;;;;;;5069989;28;20119;-53
2021/07/21 04:46:52;;;;;;;11.18;4.07;;;;;;;;;;5069765;28;20053;-55
2021/07/21 04:49:19;;;;;;;5.88;3.90;;;;;;;;;;5069877;28;20453;-54
2021/07/21 04:51:47;;;;;;;9.70;4.05;;;;;;;;;;5052966;28;20056;-55
2021/07/21 04:54:18;;;;;;;8.10;3.85;;;;;;;;;;5053103;28;20025;-55
2021/07/21 04:56:45;;;;;;;7.13;4.30;;;;;;;;;;5069563;28;20135;-55
2021/07/21 04:59:13;;;;;;;5.80;3.53;;;;;;;;;;5053016;28;20126;-54
2021/07/21 05:01:42;;;;;;;7.70;3.55;;;;;;;;;;5069565;28;20065;-54
2021/07/21 05:04:09;;;;;;;5.05;3.30;;;;;;;;;;5052821;28;20024;-55
2021/07/21 05:06:54;;;;;;;7.95;4.53;;;;;;;;;;5069476;28;20395;-55
2021/07/21 05:09:21;;;;;;;16.70;4.03;;;;;;;;;;5052733;28;20088;-55
2021/07/21 05:11:58;;;;;;;7.40;4.70;;;;;;;;;;5052935;28;20111;-55
2021/07/21 05:14:24;;;;;;;12.52;4.05;;;;;;;;;;5069373;28;20125;-54
2021/07/21 05:17:18;;;;;;;11.38;3.80;;;;;;;;;;5053768;28;20025;-55
2021/07/21 05:19:44;;;;;;;9.30;3.75;;;;;;;;;;5053962;28;20090;-55
2021/07/21 05:22:10;;;;;;;8.25;3.83;;;;;;;;;;5052647;28;20028;-55
2021/07/21 05:24:37;;;;;;;10.77;3.58;;;;;;;;;;5052357;28;20068;-55
2021/07/21 05:27:04;;;;;;;6.60;3.97;;;;;;;;;;5053991;28;20037;-55
2021/07/21 05:29:31;;;;;;;5.82;3.67;;;;;;;;;;5052424;28;20075;-55
2021/07/21 05:32:10;;;;;;;8.60;4.82;;;;;;;;;;5053694;28;20116;-55
2021/07/21 05:34:54;;;;;;;9.60;5.22;;;;;;;;;;5053849;28;20116;-55
2021/07/21 05:37:27;;;;;;;6.22;4.20;;;;;;;;;;5052320;28;20104;-55
2021/07/21 05:39:59;;;;;;;6.72;3.88;;;;;;;;;;5068902;28;20040;-55
2021/07/21 05:42:51;;;;;;;6.00;3.53;;;;;;;;;;5032134;28;20060;-55
2021/07/21 05:45:17;;;;;;;9.90;3.83;;;;;;;;;;5051034;28;20067;-55
2021/07/21 05:47:42;;;;;;;7.43;4.68;;;;;;;;;;5053172;28;20037;-55
2021/07/21 05:50:10;;;;;;;8.25;4.25;;;;;;;;;;5068530;28;20025;-55
2021/07/21 05:52:54;;;;;;;8.23;4.97;;;;;;;;;;5053077;28;20048;-54
2021/07/21 05:55:20;;;;;;;10.65;4.93;;;;;;;;;;5068655;28;20391;-54
2021/07/21 05:57:47;;;;;;;9.77;5.22;;;;;;;;;;5051806;28;20024;-55
2021/07/21 06:00:14;;;;;;;9.80;5.20;;;;;;;;;;5068444;28;20033;-55
2021/07/21 06:02:52;;;;;;;10.75;4.15;;;;;;;;;;5051805;28;20024;-54
2021/07/21 06:05:27;;;;;;;7.28;4.68;;;;;;;;;;5051648;28;20025;-55
2021/07/21 06:08:02;;;;;;;10.07;3.88;;;;;;;;;;5052962;28;20064;-55
2021/07/21 06:10:33;;;;;;;8.10;4.65;;;;;;;;;;5053206;28;20063;-55
2021/07/21 06:13:03;;;;;;;11.20;5.38;;;;;;;;;;5052916;28;20036;-56
2021/07/21 06:15:30;;;;;;;9.55;4.43;;;;;;;;;;5051504;28;20025;-55
2021/07/21 06:17:57;;;;;;;10.05;4.90;;;;;;;;;;5068198;28;20060;-55
2021/07/21 06:20:31;;;;;;;11.75;4.53;;;;;;;;;;5051448;28;20028;-55
2021/07/21 06:22:57;;;;;;;7.60;4.82;;;;;;;;;;5052759;28;20029;-55
2021/07/21 06:25:26;;;;;;;9.15;4.78;;;;;;;;;;5067857;28;20029;-54
2021/07/21 06:28:30;;;;;;;9.27;4.85;;;;;;;;;;5040676;28;20069;-55
2021/07/21 06:30:56;;;;;;;6.05;3.75;;;;;;;;;;5052497;28;20072;-55
2021/07/21 06:33:23;;;;;;;8.30;3.95;;;;;;;;;;5067947;28;20074;-53
2021/07/21 06:35:49;;;;;;;8.68;4.43;;;;;;;;;;5067793;28;20502;-55
2021/07/21 06:38:17;;;;;;;13.30;5.15;;;;;;;;;;5052628;28;20021;-54
2021/07/21 06:40:51;;;;;;;7.88;4.25;;;;;;;;;;5067763;28;20033;-55
2021/07/21 06:43:17;;;;;;;11.98;5.88;;;;;;;;;;5052515;28;20028;-55
2021/07/21 06:45:58;;;;;;;14.70;4.97;;;;;;;;;;5051001;28;20234;-55
2021/07/21 06:48:23;;;;;;;6.20;3.83;;;;;;;;;;5051164;28;20024;-55
2021/07/21 06:50:49;;;;;;;8.05;4.28;;;;;;;;;;5052036;28;20043;-54
2021/07/21 06:53:16;;;;;;;6.22;4.43;;;;;;;;;;5067786;28;20049;-54
2021/07/21 06:56:04;;;;;;;8.40;5.00;;;;;;;;;;5014251;28;20142;-54
2021/07/21 06:58:42;;;;;;;6.07;4.43;;;;;;;;;;5051025;28;20040;-54
2021/07/21 07:01:14;;;;;;;7.57;4.78;;;;;;;;;;5052258;28;20060;-55
2021/07/21 07:03:58;;;;;;;10.90;4.10;;;;;;;;;;5051957;28;20106;-55
2021/07/21 07:06:42;;;;;;;9.45;4.68;;;;;;;;;;5052113;28;20051;-55
2021/07/21 07:09:25;;;;;;;8.07;4.03;;;;;;;;;;5052563;28;20395;-55
2021/07/21 07:12:07;;;;;;;8.52;4.22;;;;;;;;;;5067631;28;20029;-55
2021/07/21 07:14:33;;;;;;;7.28;4.28;;;;;;;;;;5052092;28;20086;-54
2021/07/21 07:16:58;;;;;;;9.73;4.93;;;;;;;;;;5052055;28;20020;-55
2021/07/21 07:19:23;;;;;;;7.85;5.63;;;;;;;;;;5052276;28;20033;-55
2021/07/21 07:21:49;;;;;;;9.20;4.30;;;;;;;;;;5052204;28;20021;-55
2021/07/21 07:24:15;;;;;;;6.70;3.83;;;;;;;;;;5067447;28;20033;-55
2021/07/21 07:26:40;;;;;;;9.93;4.30;;;;;;;;;;5051856;28;20104;-55
2021/07/21 07:29:06;;;;;;;8.48;5.18;;;;;;;;;;5050745;28;20036;-55
2021/07/21 07:31:31;;;;;;;11.50;4.00;;;;;;;;;;5051948;28;20383;-55
2021/07/21 07:33:57;;;;;;;8.80;4.43;;;;;;;;;;5051895;28;20395;-55
2021/07/21 07:36:22;;;;;;;9.18;3.55;;;;;;;;;;5051982;28;20017;-55
2021/07/21 07:38:48;;;;;;;7.28;4.47;;;;;;;;;;5050620;28;20029;-55
2021/07/21 07:41:14;;;;;;;10.60;4.35;;;;;;;;;;5051872;28;20027;-55
2021/07/21 07:43:40;;;;;;;8.48;4.72;;;;;;;;;;5051744;28;20395;-55
2021/07/21 07:46:06;;;;;;;11.52;4.57;;;;;;;;;;5051673;28;20029;-55
2021/07/21 07:48:31;;;;;;;7.05;4.50;;;;;;;;;;5052111;28;20037;-55
2021/07/21 07:50:57;;;;;;;6.30;3.90;;;;;;;;;;5050300;28;20040;-55
2021/07/21 07:53:22;;;;;;;6.45;4.47;;;;;;;;;;5067178;28;20028;-55
2021/07/21 07:55:47;;;;;;;8.63;4.68;;;;;;;;;;5051950;28;20099;-55
2021/07/21 07:58:14;;;;;;;5.93;3.80;;;;;;;;;;5052042;28;20075;-55
2021/07/21 08:00:40;;;;;;;12.30;4.82;;;;;;;;;;5051642;28;20071;-55
2021/07/21 08:03:05;;;;;;;7.47;4.18;;;;;;;;;;5051927;28;20021;-55
2021/07/21 08:05:31;;;;;;;6.65;4.57;;;;;;;;;;5051597;28;20379;-55
2021/07/21 08:08:01;;;;;;;8.65;4.93;;;;;;;;;;5052056;28;20087;-56
2021/07/21 08:10:26;;;;;;;7.65;4.57;;;;;;;;;;5055348;28;20079;-55
2021/07/21 08:12:52;;;;;;;10.18;6.07;;;;;;;;;;5055131;28;20459;-55
2021/07/21 08:15:17;;;;;;;10.25;4.60;;;;;;;;;;5054983;28;20019;-55
2021/07/21 08:17:43;;;;;;;10.00;4.60;;;;;;;;;;5055238;28;20021;-55
2021/07/21 08:20:08;;;;;;;10.60;4.50;;;;;;;;;;5055008;28;20017;-55
2021/07/21 08:22:39;;;;;;;9.40;5.15;;;;;;;;;;5070342;28;20021;-55
2021/07/21 08:25:08;;;;;;;8.20;4.38;;;;;;;;;;5055000;28;20040;-55
2021/07/21 08:27:34;;;;;;;11.88;5.03;;;;;;;;;;5054599;28;20131;-55
2021/07/21 08:29:59;;;;;;;8.48;4.05;;;;;;;;;;5055174;28;20108;-55
2021/07/21 08:32:25;;;;;;;8.38;4.38;;;;;;;;;;5054988;28;20429;-55
2021/07/21 08:34:50;;;;;;;8.10;4.90;;;;;;;;;;5054876;28;20486;-55
2021/07/21 08:37:15;;;;;;;7.22;3.55;;;;;;;;;;5055016;28;20486;-55
2021/07/21 08:39:41;;;;;;;7.93;4.85;;;;;;;;;;5054658;28;20017;-55
2021/07/21 08:42:06;;;;;;;14.52;4.75;;;;;;;;;;5054580;28;20083;-56
2021/07/21 08:44:32;;;;;;;7.85;4.30;;;;;;;;;;5054863;28;20031;-55
2021/07/21 08:46:58;;;;;;;10.85;5.28;;;;;;;;;;5054373;28;20029;-56
2021/07/21 08:49:23;;;;;;;7.95;3.50;;;;;;;;;;5054784;28;20375;-56
2021/07/21 08:51:49;;;;;;;8.88;5.30;;;;;;;;;;5054202;28;20110;-55
2021/07/21 08:54:16;;;;;;;6.60;3.47;;;;;;;;;;5054671;28;20020;-54
2021/07/21 08:56:41;;;;;;;7.90;4.93;;;;;;;;;;5054590;28;20391;-55
2021/07/21 08:59:07;;;;;;;8.95;4.18;;;;;;;;;;5054572;28;20021;-55
2021/07/21 09:01:34;;;;;;;9.70;5.03;;;;;;;;;;5054329;28;20036;-56
2021/07/21 09:03:59;;;;;;;8.60;4.07;;;;;;;;;;5054085;28;20017;-55
2021/07/21 09:06:25;;;;;;;12.13;5.90;;;;;;;;;;5054089;28;20045;-56
2021/07/21 09:08:50;;;;;;;10.07;4.57;;;;;;;;;;5054443;28;20021;-55
2021/07/21 09:11:17;;;;;;;7.47;4.53;;;;;;;;;;5054344;28;20559;-55
2021/07/21 09:13:42;;;;;;;8.93;4.32;;;;;;;;;;5054209;28;20044;-54
2021/07/21 09:16:07;;;;;;;9.25;4.22;;;;;;;;;;5054018;28;20033;-55
2021/07/21 09:18:52;;;;;;;10.85;4.70;;;;;;;;;;5052436;28;20104;-54
2021/07/21 09:21:19;;;;;;;9.02;5.22;;;;;;;;;;5053934;28;20526;-55
2021/07/21 09:23:46;;;;;;;8.25;4.80;;;;;;;;;;5054091;28;20017;-55
2021/07/21 09:26:16;;;;;;;6.18;3.17;;;;;;;;;;5053782;28;20063;-54
2021/07/21 09:28:43;;;;;;;7.03;3.95;;;;;;;;;;5053733;28;20107;-55
2021/07/21 09:31:12;;;;;;;10.05;5.97;;;;;;;;;;5053767;28;20025;-55
2021/07/21 09:33:37;;;;;;;9.45;4.95;;;;;;;;;;5053471;28;20035;-55
2021/07/21 09:36:02;;;;;;;8.82;5.80;;;;;;;;;;5053665;28;20093;-55
2021/07/21 09:38:29;;;;;;;10.25;4.03;;;;;;;;;;5068956;28;20029;-56
2021/07/21 09:41:01;;;;;;;8.73;4.60;;;;;;;;;;5053605;28;20013;-56
2021/07/21 09:43:28;;;;;;;9.85;4.20;;;;;;;;;;5052245;28;20057;-56
2021/07/21 09:45:54;;;;;;;8.65;4.45;;;;;;;;;;5053476;28;20074;-55
2021/07/21 09:48:42;;;;;;;7.25;4.07;;;;;;;;;;5053398;28;20117;-56
2021/07/21 09:51:08;;;;;;;7.80;4.05;;;;;;;;;;5053161;28;20049;-56
2021/07/21 09:53:41;;;;;;;11.98;5.30;;;;;;;;;;5053289;28;20021;-55
2021/07/21 09:56:07;;;;;;;6.40;4.50;;;;;;;;;;5068557;28;20079;-55
2021/07/21 09:58:34;;;;;;;10.32;5.07;;;;;;;;;;5053310;28;20483;-55
2021/07/21 10:01:00;;;;;;;8.80;4.38;;;;;;;;;;5053006;28;20029;-54
2021/07/21 10:03:26;;;;;;;8.93;4.45;;;;;;;;;;5053132;28;20490;-55
2021/07/21 10:05:51;;;;;;;9.73;5.32;;;;;;;;;;5053005;28;20538;-54
2021/07/21 10:08:42;;;;;;;6.75;4.68;;;;;;;;;;5052963;28;20064;-55
2021/07/21 10:11:22;;;;;;;8.05;4.68;;;;;;;;;;5051705;28;20060;-56
2021/07/21 10:13:49;;;;;;;8.02;4.20;;;;;;;;;;5053139;28;20426;-56
2021/07/21 10:16:29;;;;;;;9.10;4.72;;;;;;;;;;5052766;28;20380;-55
2021/07/21 10:19:02;;;;;;;20.73;5.18;;;;;;;;;;5052889;28;20425;-56
2021/07/21 10:21:27;;;;;;;10.00;4.45;;;;;;;;;;5052639;28;20048;-56
2021/07/21 10:23:52;;;;;;;7.32;4.68;;;;;;;;;;5052916;28;20025;-55
2021/07/21 10:26:18;;;;;;;8.80;4.47;;;;;;;;;;5051418;28;20032;-56
2021/07/21 10:28:44;;;;;;;10.77;5.28;;;;;;;;;;5052719;28;20069;-55
2021/07/21 10:31:09;;;;;;;6.95;4.43;;;;;;;;;;5052045;28;20035;-55
2021/07/21 10:33:35;;;;;;;9.57;4.55;;;;;;;;;;5052548;28;20017;-54
2021/07/21 10:36:02;;;;;;;10.65;5.10;;;;;;;;;;5052539;28;20029;-56
2021/07/21 10:38:27;;;;;;;9.85;4.25;;;;;;;;;;5052811;28;20045;-56
2021/07/21 10:40:53;;;;;;;8.32;4.60;;;;;;;;;;5052348;28;20537;-56
2021/07/21 10:43:18;;;;;;;10.15;5.28;;;;;;;;;;5052656;28;20049;-56
2021/07/21 10:45:44;;;;;;;8.63;5.38;;;;;;;;;;5067641;28;20132;-55
2021/07/21 10:48:18;;;;;;;8.45;4.85;;;;;;;;;;5051234;28;20110;-55
2021/07/21 10:51:05;;;;;;;8.15;5.05;;;;;;;;;;5052002;28;20537;-55
2021/07/21 10:54:00;;;;;;;8.80;4.18;;;;;;;;;;5052346;28;20028;-55
2021/07/21 10:59:15;;;;;;;10.75;5.93;;;;;;;;;;5052505;28;20029;-56
2021/07/21 11:01:44;;;;;;;11.50;4.95;;;;;;;;;;5052240;28;20017;-56
2021/07/21 11:04:10;;;;;;;8.85;5.00;;;;;;;;;;5052205;28;20075;-56
2021/07/21 11:06:42;;;;;;;6.53;4.45;;;;;;;;;;5052150;28;20033;-55
2021/07/21 11:09:14;;;;;;;10.20;5.40;;;;;;;;;;5052217;28;20051;-55
2021/07/21 11:11:40;;;;;;;8.63;4.53;;;;;;;;;;5052029;28;20112;-56
2021/07/21 11:14:08;;;;;;;11.75;4.72;;;;;;;;;;5052369;28;20523;-56
2021/07/21 11:16:36;;;;;;;9.13;5.13;;;;;;;;;;5052441;28;20159;-56
2021/07/21 11:19:21;;;;;;;10.15;4.60;;;;;;;;;;5051980;28;20052;-55
2021/07/21 11:21:52;;;;;;;11.80;3.72;;;;;;;;;;5051960;28;20036;-56
2021/07/21 11:24:26;;;;;;;9.27;5.00;;;;;;;;;;5051949;28;20464;-56
2021/07/21 11:26:52;;;;;;;9.40;6.07;;;;;;;;;;5051812;28;20514;-55
2021/07/21 11:29:23;;;;;;;9.18;4.50;;;;;;;;;;5051963;28;20013;-55
2021/07/21 11:31:49;;;;;;;9.25;5.40;;;;;;;;;;5052179;28;20128;-55
2021/07/21 11:34:15;;;;;;;9.85;5.03;;;;;;;;;;5051896;28;20045;-55
2021/07/21 11:36:43;;;;;;;8.05;5.25;;;;;;;;;;5051817;28;20079;-54
2021/07/21 11:39:09;;;;;;;8.57;4.95;;;;;;;;;;5052245;28;20390;-55
2021/07/21 11:41:47;;;;;;;9.05;4.70;;;;;;;;;;5052057;28;20356;-55
2021/07/21 11:44:22;;;;;;;9.40;5.07;;;;;;;;;;5055729;28;20029;-55
2021/07/21 11:46:48;;;;;;;10.35;4.90;;;;;;;;;;5055533;28;20116;-55
2021/07/21 11:49:17;;;;;;;8.93;4.38;;;;;;;;;;5055878;28;20116;-55
2021/07/21 11:51:47;;;;;;;10.35;5.43;;;;;;;;;;5055388;28;20102;-54
2021/07/21 11:54:17;;;;;;;6.93;4.72;;;;;;;;;;5055600;28;20017;-54
2021/07/21 11:56:43;;;;;;;6.45;3.78;;;;;;;;;;5055453;28;20056;-54
2021/07/21 11:59:08;;;;;;;8.10;4.75;;;;;;;;;;5055466;28;20460;-54
2021/07/21 12:01:33;;;;;;;15.15;5.80;;;;;;;;;;5055494;28;20114;-55
2021/07/21 12:03:59;;;;;;;12.18;5.43;;;;;;;;;;5053931;28;20111;-55
2021/07/21 12:06:25;;;;;;;8.60;5.35;;;;;;;;;;5055278;28;20041;-55
2021/07/21 12:08:52;;;;;;;9.57;5.13;;;;;;;;;;5055287;28;20032;-55
2021/07/21 12:11:18;;;;;;;9.75;4.97;;;;;;;;;;5070576;28;20501;-55
2021/07/21 12:13:43;;;;;;;12.18;6.35;;;;;;;;;;5053954;28;20021;-55
2021/07/21 12:16:09;;;;;;;14.05;5.13;;;;;;;;;;5054961;28;20025;-56
2021/07/21 12:18:34;;;;;;;10.38;4.35;;;;;;;;;;5055097;28;20016;-54
2021/07/21 12:21:08;;;;;;;7.80;4.72;;;;;;;;;;5055297;28;20112;-55
2021/07/21 12:23:33;;;;;;;9.60;5.07;;;;;;;;;;5055230;28;20033;-55
2021/07/21 12:26:06;;;;;;;8.32;4.63;;;;;;;;;;5053739;28;20482;-55
2021/07/21 12:28:31;;;;;;;10.35;4.85;;;;;;;;;;5054964;28;20033;-56
2021/07/21 12:30:57;;;;;;;6.28;4.50;;;;;;;;;;5054813;28;20017;-56
2021/07/21 12:33:22;;;;;;;11.32;4.60;;;;;;;;;;5054796;28;20041;-55
2021/07/21 12:35:49;;;;;;;9.50;5.38;;;;;;;;;;5053529;28;20017;-57
2021/07/21 12:38:14;;;;;;;7.10;4.13;;;;;;;;;;5055000;28;20033;-56
2021/07/21 12:40:41;;;;;;;9.93;4.50;;;;;;;;;;5054915;28;20549;-55
2021/07/21 12:43:08;;;;;;;9.90;5.47;;;;;;;;;;5054618;28;20032;-55
2021/07/21 12:45:33;;;;;;;7.65;4.07;;;;;;;;;;5054593;28;20013;-56
2021/07/21 12:47:59;;;;;;;8.73;4.72;;;;;;;;;;5054460;28;20083;-56
2021/07/21 12:50:34;;;;;;;8.43;4.75;;;;;;;;;;5054604;28;20045;-56
2021/07/21 12:53:02;;;;;;;8.68;4.68;;;;;;;;;;5054612;28;20040;-55
2021/07/21 12:55:31;;;;;;;11.15;5.70;;;;;;;;;;5053858;28;20040;-56
2021/07/21 12:57:58;;;;;;;6.47;4.53;;;;;;;;;;5054227;28;20476;-55
2021/07/21 13:00:25;;;;;;;8.02;4.97;;;;;;;;;;5054367;28;20147;-54
2021/07/21 13:03:04;;;;;;;8.57;4.35;;;;;;;;;;5054530;28;20405;-55
2021/07/21 13:05:30;;;;;;;10.15;4.75;;;;;;;;;;5054242;28;20033;-56
2021/07/21 13:07:56;;;;;;;7.88;4.35;;;;;;;;;;5054043;28;20052;-55
2021/07/21 13:10:22;;;;;;;7.15;4.85;;;;;;;;;;5054166;28;20103;-55
2021/07/21 13:12:47;;;;;;;6.57;4.43;;;;;;;;;;5054042;28;20144;-54
2021/07/21 13:15:22;;;;;;;11.18;4.68;;;;;;;;;;5054199;28;20421;-55
2021/07/21 13:17:57;;;;;;;17.00;5.05;;;;;;;;;;5054260;28;20021;-55
2021/07/21 13:20:28;;;;;;;9.75;4.78;;;;;;;;;;5054173;28;20111;-55
2021/07/21 13:23:13;;;;;;;8.38;4.80;;;;;;;;;;5052699;28;20032;-56
2021/07/21 13:25:38;;;;;;;6.28;4.30;;;;;;;;;;5053842;28;20100;-56
2021/07/21 13:28:23;;;;;;;8.38;4.60;;;;;;;;;;5053947;28;20158;-55
2021/07/21 13:30:49;;;;;;;7.47;4.55;;;;;;;;;;5053727;28;20055;-55
2021/07/21 13:33:14;;;;;;;9.75;5.05;;;;;;;;;;5053946;28;20024;-55
2021/07/21 13:35:40;;;;;;;10.13;5.07;;;;;;;;;;5052356;28;20387;-55
2021/07/21 13:38:05;;;;;;;7.13;4.00;;;;;;;;;;5052697;28;20064;-54
2021/07/21 13:40:31;;;;;;;7.43;4.60;;;;;;;;;;5053888;28;20057;-55
2021/07/21 13:43:03;;;;;;;9.13;4.60;;;;;;;;;;5053348;28;20452;-55
2021/07/21 13:45:29;;;;;;;8.02;4.65;;;;;;;;;;5053726;28;20055;-53
2021/07/21 13:47:56;;;;;;;8.68;3.83;;;;;;;;;;5053237;28;20476;-54
2021/07/21 13:50:22;;;;;;;11.05;5.40;;;;;;;;;;5053222;28;20391;-56
2021/07/21 13:53:00;;;;;;;6.95;4.65;;;;;;;;;;5053508;28;20032;-57
2021/07/21 13:55:25;;;;;;;12.98;5.40;;;;;;;;;;5053251;28;20468;-57
2021/07/21 13:57:51;;;;;;;7.85;5.45;;;;;;;;;;5053139;28;20024;-58
2021/07/21 14:00:16;;;;;;;11.90;5.72;;;;;;;;;;5061204;28;20452;-35
2021/07/21 14:02:42;;;;;;;19.00;5.07;;;;;;;;;;5073236;28;20017;-36
2021/07/21 14:05:07;;;;;;;18.42;5.18;;;;;;;;;;5072497;28;20036;-37
2021/07/21 14:07:33;;;;;;;9.73;5.82;;;;;;;;;;5072459;28;20113;-36
2021/07/21 14:09:58;;;;;;;14.48;5.45;;;;;;;;;;5072860;28;20112;-36
2021/07/21 14:12:23;;;;;;;11.18;5.55;;;;;;;;;;5073124;28;20025;-36
2021/07/21 14:14:49;;;;;;;12.35;5.47;;;;;;;;;;5088385;28;20151;-37
2021/07/21 14:17:15;;;;;;;16.92;5.32;;;;;;;;;;5072718;28;20036;-36
2021/07/21 14:19:40;;;;;;;9.65;6.18;;;;;;;;;;5072745;28;20025;-36
2021/07/21 14:22:06;;;;;;;5.72;4.30;;;;;;;;;;5072795;28;20017;-36
2021/07/21 14:24:31;;;;;;;21.38;5.70;;;;;;;;;;5072638;28;20101;-36
2021/07/21 14:26:58;;;;;;;12.68;4.53;;;;;;;;;;5072565;28;20386;-36
2021/07/21 14:29:23;;;;;;;10.00;5.40;;;;;;;;;;5072525;28;20086;-36
2021/07/21 14:31:49;;;;;;;7.35;5.72;;;;;;;;;;5072556;28;20016;-35
2021/07/21 14:34:17;;;;;;;12.48;5.53;;;;;;;;;;5072577;28;20024;-36
2021/07/21 14:36:46;;;;;;;8.60;5.05;;;;;;;;;;5072730;28;20017;-36
2021/07/21 14:39:12;;;;;;;7.38;4.57;;;;;;;;;;5072761;28;20043;-36
2021/07/21 14:41:40;;;;;;;7.22;4.13;;;;;;;;;;5072705;28;20017;-36
2021/07/21 14:44:06;;;;;;;7.40;4.57;;;;;;;;;;5072485;28;20032;-35
2021/07/21 14:46:31;;;;;;;9.45;4.95;;;;;;;;;;5072325;28;20107;-36
2021/07/21 14:48:57;;;;;;;11.82;4.95;;;;;;;;;;5072313;28;20040;-36
2021/07/21 14:51:22;;;;;;;14.18;4.82;;;;;;;;;;5072345;28;20091;-36
2021/07/21 14:53:47;;;;;;;9.23;4.38;;;;;;;;;;5072071;28;20033;-36
2021/07/21 14:56:13;;;;;;;8.70;3.80;;;;;;;;;;5072639;28;20090;-36
2021/07/21 14:58:38;;;;;;;9.23;5.18;;;;;;;;;;5072700;28;20463;-36
2021/07/21 15:01:04;;;;;;;9.18;5.03;;;;;;;;;;5072110;28;20021;-36
2021/07/21 15:03:29;;;;;;;12.75;5.57;;;;;;;;;;5072331;28;20032;-35